createdAt,value
2018-09-05T00:00:54.939Z,23.24
2018-09-05T00:03:23.887Z,23.30
2018-09-05T00:05:52.821Z,23.31
2018-09-05T00:08:21.842Z,23.28
2018-09-05T00:10:50.672Z,23.32
2018-09-05T00:13:20.079Z,23.32
2018-09-05T00:15:49.060Z,23.31
2018-09-05T00:18:18.026Z,23.22
2018-09-05T00:20:46.917Z,23.26
2018-09-05T00:23:15.747Z,23.31
2018-09-05T00:25:44.663Z,23.33
2018-09-05T00:28:13.979Z,23.27
2018-09-05T00:30:43.011Z,23.36
2018-09-05T00:33:11.914Z,23.31
2018-09-05T00:35:41.234Z,23.31
2018-09-05T00:38:10.220Z,23.26
2018-09-05T00:40:39.180Z,23.23
2018-09-05T00:43:10.660Z,23.19
2018-09-05T00:45:39.779Z,23.17
2018-09-05T00:48:08.736Z,23.12
2018-09-05T00:50:37.685Z,23.00
2018-09-05T00:53:06.729Z,22.92
2018-09-05T00:55:35.616Z,22.85
2018-09-05T00:58:04.701Z,22.46
2018-09-05T01:00:38.268Z,22.01
2018-09-05T01:03:09.538Z,21.54
2018-09-05T01:05:38.524Z,21.31
2018-09-05T01:08:07.641Z,21.16
2018-09-05T01:10:37.019Z,21.10
2018-09-05T01:13:06.120Z,20.83
2018-09-05T01:15:35.220Z,20.72
2018-09-05T01:18:04.840Z,20.61
2018-09-05T01:20:33.875Z,20.67
2018-09-05T01:23:02.894Z,20.65
2018-09-05T01:25:32.322Z,20.66
2018-09-05T01:28:01.139Z,20.64
2018-09-05T01:30:30.170Z,20.66
2018-09-05T01:33:00.064Z,20.69
2018-09-05T01:35:29.097Z,20.69
2018-09-05T01:37:58.043Z,20.68
2018-09-05T01:40:27.884Z,20.68
2018-09-05T01:42:56.777Z,20.68
2018-09-05T01:45:26.654Z,20.49
2018-09-05T01:47:55.901Z,20.43
2018-09-05T01:50:29.995Z,20.42
2018-09-05T01:52:58.850Z,20.32
2018-09-05T01:55:27.817Z,20.40
2018-09-05T01:57:56.591Z,20.58
2018-09-05T02:00:31.054Z,20.64
2018-09-05T02:02:59.975Z,20.75
2018-09-05T02:05:28.946Z,20.84
2018-09-05T02:07:58.763Z,20.89
2018-09-05T02:10:27.815Z,20.94
2018-09-05T02:12:56.849Z,20.90
2018-09-05T02:15:26.440Z,20.79
2018-09-05T02:17:55.445Z,20.73
2018-09-05T02:20:55.428Z,20.89
2018-09-05T02:23:25.639Z,20.91
2018-09-05T02:25:54.556Z,20.69
2018-09-05T02:28:23.556Z,20.70
2018-09-05T02:30:52.635Z,20.88
2018-09-05T02:33:21.673Z,21.05
2018-09-05T02:35:50.522Z,21.11
2018-09-05T02:38:19.347Z,21.19
2018-09-05T02:40:48.461Z,21.16
2018-09-05T02:43:22.481Z,21.18
2018-09-05T02:45:51.373Z,21.23
2018-09-05T02:48:20.391Z,21.20
2018-09-05T02:50:50.825Z,21.18
2018-09-05T02:53:21.014Z,21.10
2018-09-05T02:55:55.262Z,21.08
2018-09-05T02:58:24.311Z,21.05
2018-09-05T03:00:53.441Z,21.06
2018-09-05T03:03:22.841Z,21.07
2018-09-05T03:05:51.872Z,21.05
2018-09-05T03:08:20.759Z,20.90
2018-09-05T03:10:49.717Z,20.96
2018-09-05T03:13:18.652Z,20.99
2018-09-05T03:15:47.660Z,20.96
2018-09-05T03:18:17.198Z,20.91
2018-09-05T03:20:46.100Z,20.84
2018-09-05T03:23:14.977Z,20.89
2018-09-05T03:25:44.138Z,20.93
2018-09-05T03:28:13.203Z,20.88
2018-09-05T03:30:42.357Z,20.92
2018-09-05T03:33:11.499Z,21.03
2018-09-05T03:35:40.467Z,21.12
2018-09-05T03:38:09.385Z,21.06
2018-09-05T03:40:38.613Z,21.12
2018-09-05T03:43:07.556Z,21.17
2018-09-05T03:45:36.658Z,21.07
2018-09-05T03:48:05.859Z,21.17
2018-09-05T03:50:35.448Z,21.15
2018-09-05T03:53:04.533Z,21.10
2018-09-05T03:55:33.620Z,21.02
2018-09-05T03:58:03.695Z,21.06
2018-09-05T04:00:38.112Z,21.07
2018-09-05T04:03:07.068Z,21.27
2018-09-05T04:05:36.138Z,21.30
2018-09-05T04:08:05.412Z,21.34
2018-09-05T04:10:34.379Z,21.38
2018-09-05T04:13:03.423Z,21.40
2018-09-05T04:15:32.682Z,21.42
2018-09-05T04:18:01.669Z,21.42
2018-09-05T04:20:30.649Z,21.41
2018-09-05T04:22:59.646Z,21.30
2018-09-05T04:25:28.639Z,21.33
2018-09-05T04:27:57.570Z,21.35
2018-09-05T04:30:26.679Z,21.34
2018-09-05T04:32:55.721Z,21.40
2018-09-05T04:35:26.297Z,21.39
2018-09-05T04:37:56.589Z,21.42
2018-09-05T04:40:25.485Z,21.42
2018-09-05T04:42:54.516Z,21.36
2018-09-05T04:45:26.132Z,21.39
2018-09-05T04:47:55.457Z,21.35
2018-09-05T04:50:26.817Z,21.31
2018-09-05T04:56:26.226Z,21.32
2018-09-05T04:58:55.986Z,21.35
2018-09-05T05:01:27.414Z,21.41
2018-09-05T05:03:56.412Z,21.39
2018-09-05T05:06:25.459Z,21.41
2018-09-05T05:08:54.513Z,21.36
2018-09-05T05:11:23.374Z,21.42
2018-09-05T05:13:52.300Z,21.41
2018-09-05T05:16:21.544Z,21.33
2018-09-05T05:18:50.393Z,21.25
2018-09-05T05:21:19.418Z,21.21
2018-09-05T05:23:49.035Z,21.21
2018-09-05T05:26:18.102Z,21.25
2018-09-05T05:28:47.604Z,21.31
2018-09-05T05:31:16.557Z,21.35
2018-09-05T05:33:45.961Z,21.36
2018-09-05T05:36:16.346Z,21.31
2018-09-05T05:38:45.475Z,21.36
2018-09-05T05:41:14.540Z,21.41
2018-09-05T05:43:43.686Z,21.42
2018-09-05T05:46:22.767Z,21.45
2018-09-05T05:49:01.672Z,21.52
2018-09-05T05:51:30.813Z,21.59
2018-09-05T05:54:00.351Z,21.60
2018-09-05T05:56:29.950Z,21.66
2018-09-05T05:59:05.039Z,21.77
2018-09-05T06:01:39.628Z,21.85
2018-09-05T06:04:12.068Z,21.94
2018-09-05T06:06:47.313Z,22.05
2018-09-05T06:09:16.404Z,22.11
2018-09-05T06:11:51.264Z,22.18
2018-09-05T06:14:20.216Z,22.25
2018-09-05T06:16:50.161Z,22.25
2018-09-05T06:19:19.616Z,22.28
2018-09-05T06:21:54.050Z,22.39
2018-09-05T06:24:23.211Z,22.43
2018-09-05T06:26:53.142Z,22.52
2018-09-05T06:29:25.388Z,22.66
2018-09-05T06:31:54.539Z,22.86
2018-09-05T06:34:28.042Z,22.88
2018-09-05T06:36:59.622Z,23.06
2018-09-05T06:39:28.737Z,23.16
2018-09-05T06:41:57.719Z,23.27
2018-09-05T06:44:32.178Z,23.28
2018-09-05T06:47:04.707Z,23.24
2018-09-05T06:49:34.592Z,23.37
2018-09-05T06:52:04.025Z,23.50
2018-09-05T06:54:40.795Z,23.62
2018-09-05T06:57:16.402Z,23.76
2018-09-05T06:59:52.806Z,23.90
2018-09-05T07:02:23.815Z,23.92
2018-09-05T07:04:54.351Z,23.93
2018-09-05T07:07:30.012Z,23.92
2018-09-05T07:10:02.612Z,23.81
2018-09-05T07:12:34.969Z,23.78
2018-09-05T07:15:10.358Z,23.87
2018-09-05T07:17:41.544Z,23.90
2018-09-05T07:20:14.131Z,23.92
2018-09-05T07:22:43.534Z,23.97
2018-09-05T07:25:31.137Z,24.11
2018-09-05T07:28:05.916Z,24.11
2018-09-05T07:30:37.479Z,24.13
2018-09-05T07:38:33.337Z,24.54
2018-09-05T07:41:02.570Z,24.66
2018-09-05T07:43:35.355Z,24.64
2018-09-05T07:46:05.420Z,24.56
2018-09-05T07:48:39.427Z,24.50
2018-09-05T07:51:14.569Z,24.48
2018-09-05T07:53:43.661Z,24.45
2018-09-05T07:56:12.749Z,24.49
2018-09-05T07:58:49.840Z,24.64
2018-09-05T08:01:19.034Z,24.85
2018-09-05T08:03:50.257Z,25.00
2018-09-05T08:06:24.695Z,25.03
2018-09-05T08:08:54.288Z,25.07
2018-09-05T08:11:29.842Z,25.14
2018-09-05T08:13:59.638Z,25.25
2018-09-05T08:16:34.334Z,25.26
2018-09-05T08:19:03.843Z,25.28
2018-09-05T08:21:32.827Z,25.34
2018-09-05T08:24:02.954Z,25.42
2018-09-05T08:26:34.000Z,25.52
2018-09-05T08:29:03.197Z,25.54
2018-09-05T08:31:40.328Z,25.57
2018-09-05T08:37:07.202Z,25.76
2018-09-05T08:39:35.985Z,25.87
2018-09-05T08:42:05.083Z,25.94
2018-09-05T08:44:35.692Z,26.15
2018-09-05T08:47:08.593Z,26.11
2018-09-05T08:49:42.898Z,26.12
2018-09-05T08:52:12.137Z,26.13
2018-09-05T08:54:47.253Z,26.27
2018-09-05T08:57:17.228Z,26.34
2018-09-05T08:59:46.367Z,26.41
2018-09-05T09:02:19.174Z,26.42
2018-09-05T09:04:54.699Z,26.59
2018-09-05T09:07:24.905Z,26.64
2018-09-05T09:09:55.075Z,26.64
2018-09-05T09:12:24.378Z,26.82
2018-09-05T09:14:58.856Z,26.64
2018-09-05T09:17:27.950Z,26.30
2018-09-05T09:19:57.068Z,26.50
2018-09-05T09:22:26.440Z,26.65
2018-09-05T09:24:57.544Z,26.71
2018-09-05T09:27:26.900Z,26.88
2018-09-05T09:29:55.910Z,26.95
2018-09-05T09:32:25.000Z,27.01
2018-09-05T09:34:54.574Z,26.93
2018-09-05T09:37:24.545Z,27.06
2018-09-05T09:39:53.597Z,27.24
2018-09-05T09:42:26.530Z,27.30
2018-09-05T09:44:55.477Z,27.32
2018-09-05T09:47:28.670Z,27.37
2018-09-05T09:50:00.562Z,27.22
2018-09-05T09:52:37.684Z,27.32
2018-09-05T09:55:08.775Z,27.48
2018-09-05T09:57:38.929Z,27.62
2018-09-05T10:00:09.364Z,27.71
2018-09-05T10:02:43.502Z,27.78
2018-09-05T10:05:18.553Z,27.81
2018-09-05T10:07:52.475Z,27.88
2018-09-05T10:10:26.541Z,27.98
2018-09-05T10:13:00.675Z,27.93
2018-09-05T10:15:34.753Z,27.88
2018-09-05T10:18:09.141Z,28.06
2018-09-05T10:20:38.000Z,28.15
2018-09-05T10:23:06.866Z,28.25
2018-09-05T10:25:36.010Z,28.21
2018-09-05T10:28:05.016Z,28.49
2018-09-05T10:30:34.058Z,28.63
2018-09-05T10:33:03.151Z,28.78
2018-09-05T10:35:32.164Z,28.76
2018-09-05T10:38:00.983Z,28.57
2018-09-05T10:40:30.382Z,28.61
2018-09-05T10:42:59.255Z,28.74
2018-09-05T10:45:28.270Z,28.99
2018-09-05T10:47:57.319Z,28.94
2018-09-05T10:50:26.361Z,29.07
2018-09-05T10:52:55.309Z,29.34
2018-09-05T10:55:24.669Z,29.42
2018-09-05T10:57:53.803Z,29.83
2018-09-05T11:00:25.357Z,29.81
2018-09-05T11:02:54.418Z,30.09
2018-09-05T11:05:23.427Z,29.93
2018-09-05T11:07:52.589Z,30.11
2018-09-05T11:10:21.522Z,30.24
2018-09-05T11:12:50.356Z,30.20
2018-09-05T11:15:19.725Z,30.25
2018-09-05T11:17:48.572Z,29.93
2018-09-05T11:20:17.366Z,29.66
2018-09-05T11:22:46.328Z,27.86
2018-09-05T11:25:15.178Z,26.94
2018-09-05T11:27:44.190Z,26.21
2018-09-05T11:30:13.272Z,25.81
2018-09-05T11:32:42.069Z,25.43
2018-09-05T11:35:10.977Z,25.26
2018-09-05T11:37:39.781Z,25.25
2018-09-05T11:40:08.984Z,24.95
2018-09-05T11:42:37.718Z,24.92
2018-09-05T11:45:06.810Z,24.87
2018-09-05T11:47:35.644Z,24.93
2018-09-05T11:50:05.031Z,25.11
2018-09-05T11:52:34.272Z,25.24
2018-09-05T11:55:03.093Z,25.08
2018-09-05T11:57:32.002Z,25.21
2018-09-05T12:00:01.165Z,25.19
2018-09-05T12:02:29.976Z,25.17
2018-09-05T12:04:58.838Z,24.74
2018-09-05T12:07:27.721Z,24.28
2018-09-05T12:09:56.627Z,23.52
2018-09-05T12:12:25.631Z,23.87
2018-09-05T12:14:54.501Z,24.02
2018-09-05T12:17:23.424Z,23.59
2018-09-05T12:19:52.341Z,23.00
2018-09-05T12:22:21.522Z,22.98
2018-09-05T12:24:50.481Z,23.13
2018-09-05T12:27:19.369Z,23.29
2018-09-05T12:29:48.614Z,23.21
2018-09-05T12:32:17.366Z,23.22
2018-09-05T12:34:46.094Z,23.40
2018-09-05T12:37:14.917Z,23.48
2018-09-05T12:39:43.673Z,23.72
2018-09-05T12:42:12.489Z,24.00
2018-09-05T12:44:41.681Z,24.29
2018-09-05T12:47:10.442Z,24.73
2018-09-05T12:49:39.287Z,25.00
2018-09-05T12:52:08.170Z,25.19
2018-09-05T12:54:37.102Z,25.29
2018-09-05T12:57:06.046Z,25.42
2018-09-05T12:59:35.054Z,25.59
2018-09-05T13:02:03.861Z,25.58
2018-09-05T13:04:32.757Z,25.22
2018-09-05T13:07:01.788Z,25.18
2018-09-05T13:09:30.663Z,25.10
2018-09-05T13:11:59.512Z,25.33
2018-09-05T13:14:28.317Z,25.39
2018-09-05T13:16:57.210Z,25.34
2018-09-05T13:19:26.081Z,25.31
2018-09-05T13:21:54.932Z,25.27
2018-09-05T13:24:23.909Z,25.44
2018-09-05T13:26:52.787Z,25.28
2018-09-05T13:29:21.975Z,25.41
2018-09-05T13:31:51.222Z,25.31
2018-09-05T13:34:20.071Z,25.02
2018-09-05T13:36:49.015Z,25.22
2018-09-05T13:39:18.946Z,25.19
2018-09-05T13:41:47.777Z,25.60
2018-09-05T13:44:16.657Z,25.89
2018-09-05T13:46:46.069Z,26.01
2018-09-05T13:49:14.837Z,25.67
2018-09-05T13:51:48.831Z,25.48
2018-09-05T13:54:17.692Z,25.17
2018-09-05T13:56:46.533Z,25.18
2018-09-05T13:59:15.736Z,24.71
2018-09-05T14:01:44.467Z,24.56
2018-09-05T14:04:13.358Z,24.45
2018-09-05T14:06:42.269Z,24.48
2018-09-05T14:09:13.505Z,24.45
2018-09-05T14:11:42.760Z,24.55
2018-09-05T14:14:11.598Z,24.58
2018-09-05T14:16:40.444Z,24.49
2018-09-05T14:19:09.314Z,24.05
2018-09-05T14:21:38.158Z,24.21
2018-09-05T14:24:07.086Z,24.14
2018-09-05T14:26:36.284Z,24.04
2018-09-05T14:29:05.171Z,23.95
2018-09-05T14:31:34.189Z,24.00
2018-09-05T14:34:03.067Z,23.85
2018-09-05T14:36:31.954Z,23.38
2018-09-05T14:39:00.786Z,23.01
2018-09-05T14:41:30.036Z,22.95
2018-09-05T14:43:58.853Z,22.67
2018-09-05T14:46:28.537Z,22.21
2018-09-05T14:48:57.681Z,22.30
2018-09-05T14:51:26.571Z,22.45
2018-09-05T14:53:55.466Z,22.45
2018-09-05T14:56:24.643Z,22.02
2018-09-05T14:58:53.700Z,21.39
2018-09-05T15:01:22.625Z,20.68
2018-09-05T15:03:51.680Z,20.51
2018-09-05T15:06:20.771Z,20.61
2018-09-05T15:08:49.553Z,20.65
2018-09-05T15:11:18.953Z,20.34
2018-09-05T15:13:47.772Z,20.34
2018-09-05T15:16:20.241Z,20.37
2018-09-05T15:18:49.331Z,20.39
2018-09-05T15:21:18.481Z,20.47
2018-09-05T15:23:47.565Z,20.57
2018-09-05T15:26:17.116Z,20.84
2018-09-05T15:28:47.069Z,20.90
2018-09-05T15:31:16.016Z,20.87
2018-09-05T15:33:45.066Z,20.76
2018-09-05T15:36:14.073Z,20.67
2018-09-05T15:38:43.410Z,20.46
2018-09-05T15:41:12.327Z,20.35
2018-09-05T15:43:41.216Z,20.29
2018-09-05T15:46:10.264Z,20.32
2018-09-05T15:48:39.377Z,20.45
2018-09-05T15:51:08.374Z,20.61
2018-09-05T15:53:37.806Z,20.68
2018-09-05T15:56:06.824Z,20.77
2018-09-05T15:58:35.997Z,20.89
2018-09-05T16:01:06.152Z,20.90
2018-09-05T16:03:35.291Z,20.82
2018-09-05T16:06:04.481Z,20.77
2018-09-05T16:08:34.924Z,20.75
2018-09-05T16:11:06.239Z,20.80
2018-09-05T16:13:38.534Z,20.81
2018-09-05T16:16:10.842Z,20.84
2018-09-05T16:18:42.268Z,20.90
2018-09-05T16:21:12.733Z,20.96
2018-09-05T16:23:50.483Z,20.94
2018-09-05T16:26:32.970Z,20.92
2018-09-05T16:29:03.065Z,20.77
2018-09-05T16:31:37.532Z,20.67
2018-09-05T16:34:09.835Z,20.65
2018-09-05T16:36:39.903Z,20.63
2018-09-05T16:39:15.543Z,20.59
2018-09-05T16:41:47.642Z,20.77
2018-09-05T16:44:20.501Z,20.90
2018-09-05T16:46:54.208Z,20.94
2018-09-05T16:49:25.825Z,20.91
2018-09-05T16:51:54.743Z,20.90
2018-09-05T16:54:27.011Z,20.86
2018-09-05T16:56:55.952Z,20.59
2018-09-05T16:59:24.890Z,20.55
2018-09-05T17:01:54.228Z,20.49
2018-09-05T17:04:23.359Z,20.36
2018-09-05T17:06:52.401Z,20.32
2018-09-05T17:09:22.075Z,20.31
2018-09-05T17:11:50.892Z,20.29
2018-09-05T17:14:19.957Z,20.20
2018-09-05T17:16:53.116Z,20.19
2018-09-05T17:19:24.153Z,20.12
2018-09-05T17:21:53.190Z,20.12
2018-09-05T17:24:42.650Z,20.06
2018-09-05T17:27:11.914Z,19.97
2018-09-05T17:29:40.880Z,19.99
2018-09-05T17:32:09.873Z,20.06
2018-09-05T17:34:39.211Z,20.11
2018-09-05T17:37:08.144Z,20.07
2018-09-05T17:39:37.248Z,20.05
2018-09-05T17:42:06.705Z,20.12
2018-09-05T17:44:36.741Z,20.37
2018-09-05T17:47:05.941Z,20.52
2018-09-05T17:49:34.994Z,20.51
2018-09-05T17:52:04.897Z,20.47
2018-09-05T17:54:33.840Z,20.48
2018-09-05T17:57:03.234Z,20.43
2018-09-05T17:59:32.095Z,20.33
2018-09-05T18:02:01.218Z,20.30
2018-09-05T18:04:30.333Z,20.21
2018-09-05T18:07:00.497Z,20.14
2018-09-05T18:09:29.236Z,20.11
2018-09-05T18:11:58.822Z,20.04
2018-09-05T18:14:27.950Z,19.94
2018-09-05T18:16:57.948Z,20.01
2018-09-05T18:19:27.368Z,20.02
2018-09-05T18:21:56.235Z,19.90
2018-09-05T18:24:25.138Z,20.01
2018-09-05T18:26:54.073Z,20.03
2018-09-05T18:29:22.895Z,20.06
2018-09-05T18:31:51.798Z,20.09
2018-09-05T18:34:20.764Z,20.06
2018-09-05T18:36:49.923Z,20.12
2018-09-05T18:39:19.015Z,20.15
2018-09-05T18:41:48.619Z,20.20
2018-09-05T18:44:17.625Z,20.29
2018-09-05T18:46:46.560Z,20.28
2018-09-05T18:49:16.913Z,20.22
2018-09-05T18:51:47.937Z,20.22
2018-09-05T18:54:17.601Z,20.24
2018-09-05T18:56:46.770Z,20.14
2018-09-05T18:59:18.011Z,20.13
2018-09-05T19:01:47.121Z,20.11
2018-09-05T19:04:17.594Z,20.10
2018-09-05T19:06:47.014Z,20.09
2018-09-05T19:09:16.942Z,20.12
2018-09-05T19:11:50.088Z,20.16
2018-09-05T19:14:22.830Z,20.15
2018-09-05T19:16:57.561Z,20.13
2018-09-05T19:19:27.170Z,20.12
2018-09-05T19:21:56.205Z,20.10
2018-09-05T19:24:29.302Z,20.06
2018-09-05T19:27:01.372Z,20.01
2018-09-05T19:29:38.688Z,19.97
2018-09-05T19:32:07.678Z,19.89
2018-09-05T19:34:36.641Z,19.88
2018-09-05T19:37:05.785Z,19.87
2018-09-05T19:39:40.755Z,19.84
2018-09-05T19:42:09.860Z,19.79
2018-09-05T19:44:39.629Z,19.75
2018-09-05T19:47:09.893Z,19.75
2018-09-05T19:49:38.980Z,19.72
2018-09-05T19:52:09.020Z,19.70
2018-09-05T19:54:38.217Z,19.59
2018-09-05T19:57:10.250Z,19.58
2018-09-05T19:59:40.932Z,19.54
2018-09-05T20:02:10.485Z,19.53
2018-09-05T20:04:43.030Z,19.50
2018-09-05T20:07:15.453Z,19.47
2018-09-05T20:09:44.648Z,19.50
2018-09-05T20:12:16.937Z,19.50
2018-09-05T20:14:46.053Z,19.46
2018-09-05T20:17:17.323Z,19.45
2018-09-05T20:19:47.961Z,19.47
2018-09-05T20:22:20.705Z,19.48
2018-09-05T20:24:49.841Z,19.48
2018-09-05T20:27:19.798Z,19.48
2018-09-05T20:29:48.679Z,19.45
2018-09-05T20:32:17.827Z,19.42
2018-09-05T20:34:46.735Z,19.35
2018-09-05T20:37:15.668Z,19.40
2018-09-05T20:39:45.069Z,19.42
2018-09-05T20:42:13.921Z,19.40
2018-09-05T20:44:42.883Z,19.42
2018-09-05T20:47:11.957Z,19.44
2018-09-05T20:49:41.127Z,19.45
2018-09-05T20:52:10.182Z,19.44
2018-09-05T20:54:39.460Z,19.44
2018-09-05T20:57:08.922Z,19.42
2018-09-05T20:59:38.788Z,19.37
2018-09-05T21:02:07.713Z,19.34
2018-09-05T21:04:37.001Z,19.29
2018-09-05T21:07:06.027Z,19.23
2018-09-05T21:09:34.983Z,19.22
2018-09-05T21:12:04.301Z,19.24
2018-09-05T21:14:34.299Z,19.21
2018-09-05T21:17:03.851Z,19.22
2018-09-05T21:19:32.866Z,19.22
2018-09-05T21:22:01.865Z,19.26
2018-09-05T21:24:37.675Z,19.23
2018-09-05T21:27:06.852Z,19.26
2018-09-05T21:29:35.640Z,19.23
2018-09-05T21:32:04.913Z,19.20
2018-09-05T21:34:33.819Z,19.18
2018-09-05T21:37:02.838Z,19.16
2018-09-05T21:39:36.843Z,19.17
2018-09-05T21:42:07.030Z,19.11
2018-09-05T21:44:36.027Z,19.12
2018-09-05T21:47:06.448Z,19.03
2018-09-05T21:49:35.602Z,19.01
2018-09-05T21:52:04.790Z,18.95
2018-09-05T21:54:34.856Z,18.96
2018-09-05T21:57:03.764Z,18.96
2018-09-05T21:59:33.695Z,18.94
2018-09-05T22:02:02.775Z,19.01
2018-09-05T22:04:31.651Z,19.06
2018-09-05T22:07:00.477Z,19.06
2018-09-05T22:09:31.468Z,19.05
2018-09-05T22:12:17.303Z,19.04
2018-09-05T22:14:47.186Z,19.03
2018-09-05T22:17:16.168Z,19.00
2018-09-05T22:19:45.057Z,18.99
2018-09-05T22:22:15.534Z,18.97
2018-09-05T22:24:44.700Z,18.96
2018-09-05T22:27:13.737Z,18.94
2018-09-05T22:29:43.229Z,18.90
2018-09-05T22:32:12.188Z,18.87
2018-09-05T22:34:41.097Z,18.86
2018-09-05T22:37:10.505Z,18.87
2018-09-05T22:39:39.516Z,18.85
2018-09-05T22:42:08.635Z,18.87
2018-09-05T22:44:48.600Z,18.92
2018-09-05T22:47:28.422Z,18.95
2018-09-05T22:50:12.650Z,19.03
2018-09-05T22:57:04.739Z,19.08
2018-09-05T22:59:44.512Z,19.02
2018-09-05T23:04:29.420Z,19.00
2018-09-05T23:07:09.178Z,18.93
2018-09-05T23:09:50.286Z,18.96
2018-09-05T23:12:30.186Z,19.00
2018-09-05T23:15:10.507Z,19.01
2018-09-05T23:17:50.348Z,19.10
2018-09-05T23:20:33.226Z,19.16
2018-09-05T23:23:13.138Z,19.17
2018-09-05T23:25:43.600Z,19.26
2018-09-05T23:31:05.715Z,19.27
2018-09-05T23:33:35.364Z,19.26
2018-09-05T23:36:04.852Z,19.27
2018-09-05T23:38:34.410Z,19.40
2018-09-05T23:41:03.285Z,19.38
2018-09-05T23:49:22.941Z,19.48
2018-09-05T23:51:52.176Z,19.55
2018-09-05T23:54:22.629Z,19.59
2018-09-05T23:56:52.047Z,19.63
2018-09-05T23:59:21.139Z,19.66
